Time;durP1;ratioP1;P1;durP2;ratioP2;P2;SDS_P1;SDS_P2;PMS_P1;PMS_P2;Temp;Humidity;BMP_temperature;BMP_pressure;BME280_temperature;BME280_humidity;BME280_pressure;Samples;Min_cycle;Max_cycle;Signal;HPM_P1;HPM_P2
2022/10/11 00:00:35;;;;;;;5.33;4.60;;;;;;;;;;5045313;28;20465;-78
2022/10/11 00:03:02;;;;;;;5.90;3.70;;;;;;;;;;5026383;28;20492;-78
2022/10/11 00:05:28;;;;;;;4.97;3.33;;;;;;;;;;5044027;28;21288;-78
2022/10/11 00:07:54;;;;;;;5.73;4.67;;;;;;;;;;5036964;28;20434;-78
2022/10/11 00:10:20;;;;;;;8.80;4.10;;;;;;;;;;5032342;28;20563;-78
2022/10/11 00:12:46;;;;;;;13.13;4.63;;;;;;;;;;5036180;28;20458;-78
2022/10/11 00:15:13;;;;;;;4.37;4.00;;;;;;;;;;5029812;28;20651;-78
2022/10/11 00:17:39;;;;;;;3.80;3.47;;;;;;;;;;5034439;28;20442;-78
2022/10/11 00:20:05;;;;;;;4.33;3.30;;;;;;;;;;5029732;28;20436;-77
2022/10/11 00:22:31;;;;;;;4.40;4.07;;;;;;;;;;5033217;28;20544;-78
2022/10/11 00:24:58;;;;;;;5.07;3.60;;;;;;;;;;5045746;28;20768;-79
2022/10/11 00:27:26;;;;;;;7.67;3.73;;;;;;;;;;5032418;28;20425;-77
2022/10/11 00:29:52;;;;;;;7.30;2.90;;;;;;;;;;5045658;28;20398;-78
2022/10/11 00:32:19;;;;;;;3.40;3.20;;;;;;;;;;5029948;28;20976;-77
2022/10/11 00:34:44;;;;;;;2.80;2.30;;;;;;;;;;5077753;28;20422;-77
2022/10/11 00:37:10;;;;;;;3.07;2.57;;;;;;;;;;5029803;28;20457;-78
2022/10/11 00:39:37;;;;;;;3.50;2.63;;;;;;;;;;5047889;28;20810;-78
2022/10/11 00:42:03;;;;;;;3.23;2.20;;;;;;;;;;5042751;28;20438;-78
2022/10/11 00:44:29;;;;;;;2.23;2.23;;;;;;;;;;5044960;28;20850;-78
2022/10/11 00:46:55;;;;;;;4.20;2.30;;;;;;;;;;5041425;28;20506;-77
2022/10/11 00:49:41;;;;;;;6.00;2.60;;;;;;;;;;5047404;28;20414;-77
2022/10/11 00:52:19;;;;;;;15.20;3.30;;;;;;;;;;5042016;28;20807;-78
2022/10/11 00:54:47;;;;;;;2.30;2.10;;;;;;;;;;5047125;28;20497;-78
2022/10/11 00:57:15;;;;;;;2.33;2.23;;;;;;;;;;5028676;28;20436;-78
2022/10/11 00:59:45;;;;;;;3.00;2.70;;;;;;;;;;5079343;28;20422;-78
2022/10/11 01:02:12;;;;;;;3.27;2.97;;;;;;;;;;5043273;28;20813;-77
2022/10/11 01:04:38;;;;;;;2.35;2.15;;;;;;;;;;5047528;28;20457;-77
2022/10/11 01:07:05;;;;;;;2.73;1.90;;;;;;;;;;5042515;28;20194;-78
2022/10/11 01:09:31;;;;;;;7.80;2.20;;;;;;;;;;5048939;28;20398;-78
2022/10/11 01:12:00;;;;;;;8.80;3.13;;;;;;;;;;5043409;28;20466;-78
2022/10/11 01:14:47;;;;;;;7.20;2.80;;;;;;;;;;5031046;28;20464;-78
2022/10/11 01:17:18;;;;;;;6.13;2.10;;;;;;;;;;5042126;28;20472;-78
2022/10/11 01:19:52;;;;;;;6.72;2.30;;;;;;;;;;5046878;28;20793;-78
2022/10/11 01:22:21;;;;;;;2.97;2.73;;;;;;;;;;5044912;28;20691;-78
2022/10/11 01:24:47;;;;;;;2.77;2.57;;;;;;;;;;5046435;28;20489;-78
2022/10/11 01:27:31;;;;;;;4.83;3.00;;;;;;;;;;5042072;28;20535;-78
2022/10/11 01:30:16;;;;;;;2.30;2.23;;;;;;;;;;5044192;28;20479;-78
2022/10/11 01:32:42;;;;;;;7.57;2.80;;;;;;;;;;5031348;28;20787;-78
2022/10/11 01:35:20;;;;;;;3.07;2.70;;;;;;;;;;5044283;28;20417;-79
2022/10/11 01:37:49;;;;;;;4.30;3.08;;;;;;;;;;5018550;28;20422;-77
2022/10/11 01:40:19;;;;;;;6.57;2.57;;;;;;;;;;5044276;28;20199;-77
2022/10/11 01:42:45;;;;;;;2.23;2.10;;;;;;;;;;5030921;28;20437;-78
2022/10/11 01:45:14;;;;;;;4.05;2.35;;;;;;;;;;5070378;28;20476;-77
2022/10/11 01:47:41;;;;;;;4.80;2.77;;;;;;;;;;5029198;28;20195;-77
2022/10/11 01:50:27;;;;;;;8.53;3.30;;;;;;;;;;5044024;28;20639;-78
2022/10/11 01:52:54;;;;;;;4.13;3.57;;;;;;;;;;5003471;28;20427;-77
2022/10/11 01:55:53;;;;;;;7.00;5.00;;;;;;;;;;5041985;28;20441;-77
2022/10/11 01:58:28;;;;;;;3.40;3.17;;;;;;;;;;5002852;28;20449;-78
2022/10/11 02:01:01;;;;;;;9.50;3.60;;;;;;;;;;5018804;28;20487;-77
2022/10/11 02:03:43;;;;;;;3.13;2.77;;;;;;;;;;5027978;28;20517;-77
2022/10/11 02:06:19;;;;;;;8.57;2.73;;;;;;;;;;5022575;28;20792;-79
2022/10/11 02:09:00;;;;;;;3.40;3.10;;;;;;;;;;5004737;28;20553;-77
2022/10/11 02:11:30;;;;;;;7.90;2.73;;;;;;;;;;5042451;28;20947;-77
2022/10/11 02:14:02;;;;;;;2.60;2.43;;;;;;;;;;5019744;28;21000;-78
2022/10/11 02:16:32;;;;;;;6.70;3.27;;;;;;;;;;5043367;28;20574;-78
2022/10/11 02:18:59;;;;;;;8.90;3.50;;;;;;;;;;5023940;28;20439;-78
2022/10/11 02:21:25;;;;;;;3.03;2.73;;;;;;;;;;5043166;28;21029;-78
2022/10/11 02:24:04;;;;;;;2.67;2.47;;;;;;;;;;5024153;28;20542;-77
2022/10/11 02:26:33;;;;;;;4.85;4.22;;;;;;;;;;5043687;28;20851;-77
2022/10/11 02:29:00;;;;;;;8.85;3.45;;;;;;;;;;5023695;28;20585;-77
2022/10/11 02:31:27;;;;;;;5.70;4.10;;;;;;;;;;5042219;28;20593;-77
2022/10/11 02:33:58;;;;;;;4.40;2.43;;;;;;;;;;5024188;28;20435;-77
2022/10/11 02:36:42;;;;;;;9.40;2.50;;;;;;;;;;5043510;28;20456;-78
2022/10/11 02:39:16;;;;;;;3.33;3.00;;;;;;;;;;5024560;28;20192;-78
2022/10/11 02:41:42;;;;;;;8.33;3.70;;;;;;;;;;5042163;28;20908;-77
2022/10/11 02:44:11;;;;;;;10.05;4.30;;;;;;;;;;5023798;28;20855;-79
2022/10/11 02:46:37;;;;;;;4.00;3.70;;;;;;;;;;5041957;28;20248;-76
2022/10/11 02:49:03;;;;;;;5.27;3.60;;;;;;;;;;5024021;28;20210;-77
2022/10/11 02:51:30;;;;;;;7.20;3.20;;;;;;;;;;5042699;28;20457;-77
2022/10/11 02:53:56;;;;;;;3.63;3.23;;;;;;;;;;5024381;28;20865;-77
2022/10/11 02:56:22;;;;;;;10.03;3.53;;;;;;;;;;5045015;28;20919;-78
2022/10/11 02:58:48;;;;;;;8.03;3.30;;;;;;;;;;5028485;28;20430;-78
2022/10/11 03:01:15;;;;;;;9.00;4.33;;;;;;;;;;5047103;28;20772;-77
2022/10/11 03:03:41;;;;;;;8.40;3.60;;;;;;;;;;5028547;28;20576;-77
2022/10/11 03:09:32;;;;;;;17.83;6.60;;;;;;;;;;5040824;28;20482;-78
2022/10/11 03:11:58;;;;;;;22.10;6.10;;;;;;;;;;5036680;28;20477;-77
2022/10/11 03:14:24;;;;;;;12.82;6.50;;;;;;;;;;5035124;28;20427;-78
2022/10/11 03:16:50;;;;;;;9.27;5.40;;;;;;;;;;5046456;28;20556;-78
2022/10/11 03:19:16;;;;;;;22.73;6.07;;;;;;;;;;5027504;28;20438;-78
2022/10/11 03:21:43;;;;;;;14.70;5.60;;;;;;;;;;5046206;28;20278;-78
2022/10/11 03:24:09;;;;;;;16.70;5.80;;;;;;;;;;5059403;28;20458;-78
2022/10/11 03:26:35;;;;;;;14.10;5.57;;;;;;;;;;5046278;28;20518;-78
2022/10/11 03:29:01;;;;;;;8.37;5.30;;;;;;;;;;5027248;28;20454;-79
2022/10/11 03:31:27;;;;;;;27.10;6.17;;;;;;;;;;5046047;28;20529;-77
2022/10/11 03:33:53;;;;;;;15.43;6.07;;;;;;;;;;5027445;28;20992;-77
2022/10/11 03:36:19;;;;;;;11.33;6.57;;;;;;;;;;5046220;28;20520;-77
2022/10/11 03:38:45;;;;;;;9.63;6.20;;;;;;;;;;5027756;28;20492;-77
2022/10/11 03:41:11;;;;;;;12.47;6.00;;;;;;;;;;5045461;28;20445;-77
2022/10/11 03:43:37;;;;;;;10.60;7.10;;;;;;;;;;5037828;28;20495;-78
2022/10/11 03:46:03;;;;;;;15.37;7.20;;;;;;;;;;5030279;28;20203;-77
2022/10/11 03:48:29;;;;;;;9.77;6.87;;;;;;;;;;5036117;28;20438;-78
2022/10/11 03:50:55;;;;;;;9.47;5.57;;;;;;;;;;5030930;28;20507;-79
2022/10/11 03:53:21;;;;;;;10.50;6.83;;;;;;;;;;5067602;28;20422;-77
2022/10/11 03:55:52;;;;;;;8.33;6.27;;;;;;;;;;5030099;28;20429;-78
2022/10/11 03:58:18;;;;;;;14.13;6.70;;;;;;;;;;5033955;28;20433;-79
2022/10/11 04:00:44;;;;;;;11.27;7.77;;;;;;;;;;5040456;28;20446;-78
2022/10/11 04:03:10;;;;;;;10.80;5.60;;;;;;;;;;5029747;28;20576;-77
2022/10/11 04:05:36;;;;;;;13.80;6.40;;;;;;;;;;5026332;28;20457;-77
2022/10/11 04:08:02;;;;;;;11.37;6.20;;;;;;;;;;5030759;28;20505;-76
2022/10/11 04:10:29;;;;;;;13.10;6.50;;;;;;;;;;5045709;28;20922;-77
2022/10/11 04:12:55;;;;;;;17.13;7.55;;;;;;;;;;5032823;28;20512;-78
2022/10/11 04:15:22;;;;;;;10.60;7.03;;;;;;;;;;5047342;28;20191;-79
2022/10/11 04:17:48;;;;;;;11.82;8.07;;;;;;;;;;5043619;28;21006;-78
2022/10/11 04:20:14;;;;;;;21.15;7.82;;;;;;;;;;5047692;28;20493;-78
2022/10/11 04:22:40;;;;;;;7.40;6.23;;;;;;;;;;5074571;28;20281;-78
2022/10/11 04:25:06;;;;;;;20.80;6.90;;;;;;;;;;5047700;28;20469;-78
2022/10/11 04:27:32;;;;;;;13.50;9.20;;;;;;;;;;5041103;28;20438;-76
2022/10/11 04:29:58;;;;;;;14.43;8.47;;;;;;;;;;5047205;28;20424;-78
2022/10/11 04:32:24;;;;;;;19.33;8.93;;;;;;;;;;5073832;28;20979;-79
2022/10/11 04:34:50;;;;;;;13.60;9.27;;;;;;;;;;5025832;28;20447;-78
2022/10/11 04:37:17;;;;;;;15.07;8.30;;;;;;;;;;5043113;28;20437;-78
2022/10/11 04:39:43;;;;;;;14.73;8.40;;;;;;;;;;5027232;28;20661;-78
2022/10/11 04:42:09;;;;;;;13.33;8.43;;;;;;;;;;5037275;28;20488;-79
2022/10/11 04:44:35;;;;;;;12.30;8.50;;;;;;;;;;5026680;28;20493;-78
2022/10/11 04:47:01;;;;;;;13.00;8.80;;;;;;;;;;5043143;28;20814;-80
2022/10/11 04:49:27;;;;;;;19.90;8.77;;;;;;;;;;5025991;28;20627;-79
2022/10/11 04:51:53;;;;;;;15.87;8.53;;;;;;;;;;5038453;28;20472;-78
2022/10/11 04:54:19;;;;;;;12.13;8.20;;;;;;;;;;5026056;28;20466;-79
2022/10/11 04:56:45;;;;;;;12.37;8.07;;;;;;;;;;5044226;28;20440;-79
2022/10/11 04:59:11;;;;;;;19.63;9.00;;;;;;;;;;5026074;28;20618;-78
2022/10/11 05:01:37;;;;;;;14.47;8.70;;;;;;;;;;5025654;28;20446;-79
2022/10/11 05:04:03;;;;;;;8.87;7.97;;;;;;;;;;5026694;28;20565;-80
2022/10/11 05:06:29;;;;;;;9.73;8.63;;;;;;;;;;5040647;28;21164;-78
2022/10/11 05:08:55;;;;;;;16.17;8.53;;;;;;;;;;5041804;28;20909;-78
2022/10/11 05:11:21;;;;;;;12.67;8.10;;;;;;;;;;5055747;28;20437;-78
2022/10/11 05:13:47;;;;;;;16.63;8.30;;;;;;;;;;5040934;28;20477;-78
2022/10/11 05:16:13;;;;;;;11.97;7.97;;;;;;;;;;5061816;28;21077;-79
2022/10/11 05:18:39;;;;;;;14.43;7.90;;;;;;;;;;5032713;28;20448;-78
2022/10/11 05:21:13;;;;;;;10.70;7.77;;;;;;;;;;5028345;28;20437;-78
2022/10/11 05:23:39;;;;;;;11.37;9.00;;;;;;;;;;5012126;28;20526;-78
2022/10/11 05:26:05;;;;;;;22.50;9.80;;;;;;;;;;5014518;28;21154;-78
2022/10/11 05:28:31;;;;;;;12.33;9.90;;;;;;;;;;5023271;28;20457;-79
2022/10/11 05:30:57;;;;;;;11.17;8.80;;;;;;;;;;5018298;28;20473;-78
2022/10/11 05:33:23;;;;;;;16.53;9.73;;;;;;;;;;5061551;28;20821;-78
2022/10/11 05:35:49;;;;;;;11.10;7.90;;;;;;;;;;5019990;28;20447;-79
2022/10/11 05:38:16;;;;;;;13.03;9.90;;;;;;;;;;5028499;28;20476;-78
2022/10/11 05:40:42;;;;;;;12.53;9.43;;;;;;;;;;5021539;28;20561;-79
2022/10/11 05:43:08;;;;;;;12.57;9.57;;;;;;;;;;5024976;28;20533;-78
2022/10/11 05:45:41;;;;;;;14.53;9.60;;;;;;;;;;4331394;28;10000676;-80
2022/10/11 05:48:07;;;;;;;12.67;8.20;;;;;;;;;;5025980;28;20253;-78
2022/10/11 05:50:33;;;;;;;12.10;9.20;;;;;;;;;;5022979;28;20991;-78
2022/10/11 05:53:00;;;;;;;12.67;9.40;;;;;;;;;;5022020;28;20883;-78
2022/10/11 05:55:26;;;;;;;13.93;9.10;;;;;;;;;;5023103;28;20476;-79
2022/10/11 05:57:53;;;;;;;16.80;9.03;;;;;;;;;;5023216;28;20515;-78
2022/10/11 06:00:19;;;;;;;11.97;8.30;;;;;;;;;;5024666;28;20421;-79
2022/10/11 06:02:45;;;;;;;15.80;10.07;;;;;;;;;;5027297;28;20446;-78
2022/10/11 06:05:11;;;;;;;24.70;11.80;;;;;;;;;;5024341;28;20726;-79
2022/10/11 06:07:38;;;;;;;17.93;10.30;;;;;;;;;;5025606;28;20478;-80
2022/10/11 06:10:05;;;;;;;20.03;9.00;;;;;;;;;;5020258;28;20835;-79
2022/10/11 06:12:31;;;;;;;15.05;9.57;;;;;;;;;;5035933;28;20918;-77
2022/10/11 06:14:57;;;;;;;16.60;10.70;;;;;;;;;;5027529;28;20188;-77
2022/10/11 06:17:23;;;;;;;14.40;9.20;;;;;;;;;;5032520;28;20944;-78
2022/10/11 06:19:50;;;;;;;16.40;8.83;;;;;;;;;;5022614;28;20517;-80
2022/10/11 06:22:16;;;;;;;11.67;9.10;;;;;;;;;;5035074;28;20455;-79
2022/10/11 06:24:42;;;;;;;14.30;9.73;;;;;;;;;;5025372;28;21204;-78
2022/10/11 06:27:08;;;;;;;20.33;9.67;;;;;;;;;;5021462;28;20290;-79
2022/10/11 06:29:34;;;;;;;19.10;9.52;;;;;;;;;;5026213;28;20770;-79
2022/10/11 06:32:00;;;;;;;18.23;8.37;;;;;;;;;;5024643;28;20561;-80
2022/10/11 06:34:26;;;;;;;13.03;9.00;;;;;;;;;;5020550;28;20438;-78
2022/10/11 06:36:52;;;;;;;15.00;10.33;;;;;;;;;;5028146;28;20878;-79
2022/10/11 06:39:18;;;;;;;14.10;9.10;;;;;;;;;;5021375;28;20430;-79
2022/10/11 06:41:45;;;;;;;17.73;8.57;;;;;;;;;;5018516;28;20457;-80
2022/10/11 06:44:11;;;;;;;36.40;13.57;;;;;;;;;;5025575;28;20449;-78
2022/10/11 06:46:37;;;;;;;10.30;8.53;;;;;;;;;;5027528;28;20458;-79
2022/10/11 06:49:03;;;;;;;10.10;8.30;;;;;;;;;;5033429;28;20450;-78
2022/10/11 06:51:29;;;;;;;11.00;7.77;;;;;;;;;;5023418;28;20538;-80
2022/10/11 06:53:56;;;;;;;9.20;8.30;;;;;;;;;;5028543;28;21151;-80
2022/10/11 06:56:23;;;;;;;15.20;9.00;;;;;;;;;;5030227;28;20915;-80
2022/10/11 06:58:52;;;;;;;12.63;9.97;;;;;;;;;;5027660;28;20545;-79
2022/10/11 07:01:20;;;;;;;13.10;9.53;;;;;;;;;;5053225;28;20558;-80
2022/10/11 07:03:46;;;;;;;13.90;11.15;;;;;;;;;;5027247;28;20433;-79
2022/10/11 07:06:14;;;;;;;15.40;10.90;;;;;;;;;;5020090;28;20239;-80
2022/10/11 07:08:40;;;;;;;9.33;8.33;;;;;;;;;;5029626;28;20434;-79
2022/10/11 07:11:07;;;;;;;8.43;7.60;;;;;;;;;;5022032;28;20457;-80
2022/10/11 07:13:33;;;;;;;17.97;8.00;;;;;;;;;;5031523;28;20666;-79
2022/10/11 07:16:00;;;;;;;8.00;7.10;;;;;;;;;;5025374;28;20406;-79
2022/10/11 07:18:27;;;;;;;8.90;6.97;;;;;;;;;;5022778;28;20448;-79
2022/10/11 07:20:53;;;;;;;7.53;6.80;;;;;;;;;;5040754;28;20959;-80
2022/10/11 07:23:18;;;;;;;7.20;6.30;;;;;;;;;;5036852;28;20528;-81
2022/10/11 07:25:45;;;;;;;12.53;10.03;;;;;;;;;;5025902;28;20458;-79
2022/10/11 07:28:12;;;;;;;8.27;7.50;;;;;;;;;;5040103;28;20446;-80
2022/10/11 07:30:38;;;;;;;9.20;6.30;;;;;;;;;;5044886;28;20593;-80
2022/10/11 07:33:05;;;;;;;9.07;6.70;;;;;;;;;;5039539;28;20453;-80
2022/10/11 07:35:30;;;;;;;7.20;6.60;;;;;;;;;;5029338;28;20822;-80
2022/10/11 07:37:56;;;;;;;5.77;5.47;;;;;;;;;;5042145;28;20499;-80
2022/10/11 07:40:22;;;;;;;6.97;6.37;;;;;;;;;;5023649;28;20525;-80
2022/10/11 07:42:48;;;;;;;6.27;5.77;;;;;;;;;;5044587;28;20468;-80
2022/10/11 07:45:14;;;;;;;7.20;6.77;;;;;;;;;;5023529;28;20501;-80
2022/10/11 07:47:45;;;;;;;7.60;6.90;;;;;;;;;;5046107;28;20433;-80
2022/10/11 07:50:11;;;;;;;8.47;7.77;;;;;;;;;;5022666;28;20445;-80
2022/10/11 07:52:37;;;;;;;13.17;7.13;;;;;;;;;;5043680;28;20433;-80
2022/10/11 07:55:03;;;;;;;6.80;6.40;;;;;;;;;;5046387;28;20978;-81
2022/10/11 07:57:29;;;;;;;6.90;6.50;;;;;;;;;;5026210;28;20504;-79
2022/10/11 07:59:55;;;;;;;8.10;7.40;;;;;;;;;;5045912;28;20430;-81
2022/10/11 08:02:21;;;;;;;7.90;7.40;;;;;;;;;;5035801;28;20440;-80
2022/10/11 08:04:46;;;;;;;7.97;7.37;;;;;;;;;;5058280;28;20462;-81
2022/10/11 08:07:12;;;;;;;8.20;7.70;;;;;;;;;;5045338;28;20509;-79
2022/10/11 08:09:38;;;;;;;9.60;8.50;;;;;;;;;;5026369;28;20440;-80
2022/10/11 08:12:04;;;;;;;11.50;8.80;;;;;;;;;;5040860;28;20442;-80
2022/10/11 08:14:30;;;;;;;12.17;9.20;;;;;;;;;;5036183;28;20456;-80
2022/10/11 08:16:56;;;;;;;10.53;9.83;;;;;;;;;;5031650;28;20490;-80
2022/10/11 08:19:22;;;;;;;10.70;8.97;;;;;;;;;;5067665;28;20926;-81
2022/10/11 08:21:48;;;;;;;9.87;9.00;;;;;;;;;;5030164;28;20441;-80
2022/10/11 08:24:15;;;;;;;10.30;9.50;;;;;;;;;;5034107;28;20417;-79
2022/10/11 08:26:41;;;;;;;10.80;9.70;;;;;;;;;;5060914;28;20943;-79
2022/10/11 08:29:07;;;;;;;11.87;10.37;;;;;;;;;;5032254;28;20441;-79
2022/10/11 08:31:34;;;;;;;10.77;9.80;;;;;;;;;;4679585;28;10000693;-80
2022/10/11 08:34:00;;;;;;;10.20;9.20;;;;;;;;;;5056129;28;20561;-79
2022/10/11 08:36:26;;;;;;;11.60;10.60;;;;;;;;;;5021912;28;20434;-77
2022/10/11 08:38:52;;;;;;;13.97;11.00;;;;;;;;;;5025238;28;20533;-79
2022/10/11 08:41:21;;;;;;;12.03;9.07;;;;;;;;;;5023156;28;20446;-80
2022/10/11 08:44:06;;;;;;;9.53;8.57;;;;;;;;;;5028047;28;20484;-80
2022/10/11 08:46:34;;;;;;;8.97;8.37;;;;;;;;;;5059032;28;20431;-79
2022/10/11 08:49:01;;;;;;;15.57;10.90;;;;;;;;;;5062723;28;20488;-79
2022/10/11 08:51:29;;;;;;;11.40;9.00;;;;;;;;;;5044833;28;20406;-78
2022/10/11 08:54:04;;;;;;;10.27;9.27;;;;;;;;;;5029011;28;20429;-79
2022/10/11 08:56:30;;;;;;;16.43;10.20;;;;;;;;;;5035410;28;20938;-78
2022/10/11 08:59:00;;;;;;;8.93;8.10;;;;;;;;;;5029798;28;20513;-79
2022/10/11 09:01:27;;;;;;;10.67;8.90;;;;;;;;;;5048308;28;20417;-79
2022/10/11 09:03:54;;;;;;;12.93;11.73;;;;;;;;;;5044558;28;20731;-80
2022/10/11 09:06:23;;;;;;;12.70;11.07;;;;;;;;;;5026971;28;20831;-80
2022/10/11 09:08:58;;;;;;;9.83;8.87;;;;;;;;;;5025937;28;20495;-80
2022/10/11 09:11:27;;;;;;;10.17;9.13;;;;;;;;;;5046547;28;20418;-79
2022/10/11 09:14:02;;;;;;;9.27;8.37;;;;;;;;;;5028279;28;20456;-79
2022/10/11 09:16:41;;;;;;;8.80;7.83;;;;;;;;;;5045858;28;20416;-80
2022/10/11 09:19:24;;;;;;;9.10;6.80;;;;;;;;;;5014314;28;20806;-80
2022/10/11 09:22:09;;;;;;;13.23;7.93;;;;;;;;;;5043454;28;20438;-83
2022/10/11 09:24:44;;;;;;;8.00;7.27;;;;;;;;;;5034425;28;20477;-81
2022/10/11 09:27:13;;;;;;;7.93;6.50;;;;;;;;;;5015188;28;20468;-79
2022/10/11 09:29:57;;;;;;;15.33;6.90;;;;;;;;;;4677346;28;10000336;-80
2022/10/11 09:32:28;;;;;;;7.17;6.23;;;;;;;;;;5030810;28;20195;-80
2022/10/11 09:34:58;;;;;;;6.27;5.50;;;;;;;;;;5032625;28;20438;-79
2022/10/11 09:37:24;;;;;;;7.07;5.70;;;;;;;;;;5025620;28;20442;-80
2022/10/11 09:39:53;;;;;;;7.60;4.53;;;;;;;;;;5022586;28;20975;-79
2022/10/11 09:42:19;;;;;;;5.47;4.10;;;;;;;;;;5027948;28;20422;-79
2022/10/11 09:44:46;;;;;;;7.10;4.13;;;;;;;;;;5024776;28;20531;-80
2022/10/11 09:47:23;;;;;;;6.77;4.30;;;;;;;;;;5023226;28;20692;-80
2022/10/11 09:50:12;;;;;;;7.40;3.97;;;;;;;;;;5023024;28;20433;-81
2022/10/11 09:52:47;;;;;;;6.27;3.03;;;;;;;;;;5020097;28;20480;-79
2022/10/11 09:55:29;;;;;;;6.27;4.30;;;;;;;;;;5017126;28;20458;-79
2022/10/11 09:57:55;;;;;;;4.43;3.10;;;;;;;;;;5024926;28;20425;-83
2022/10/11 10:00:22;;;;;;;6.00;3.43;;;;;;;;;;5023873;28;20418;-79
2022/10/11 10:02:50;;;;;;;4.00;2.27;;;;;;;;;;5043144;28;20441;-79
2022/10/11 10:05:16;;;;;;;7.47;3.17;;;;;;;;;;5023736;28;20490;-79
2022/10/11 10:07:58;;;;;;;5.30;2.40;;;;;;;;;;5033774;28;20529;-81
2022/10/11 10:10:26;;;;;;;4.57;2.70;;;;;;;;;;5028288;28;20957;-81
2022/10/11 10:12:53;;;;;;;2.73;1.97;;;;;;;;;;5041074;28;20523;-79
2022/10/11 10:15:19;;;;;;;3.27;1.80;;;;;;;;;;5056774;28;20504;-81
2022/10/11 10:17:52;;;;;;;27.83;19.23;;;;;;;;;;5042813;28;20441;-78
2022/10/11 10:20:23;;;;;;;3.10;1.97;;;;;;;;;;5023901;28;20433;-81
2022/10/11 10:22:49;;;;;;;4.87;3.17;;;;;;;;;;5042833;28;20469;-81
2022/10/11 10:25:30;;;;;;;3.40;1.70;;;;;;;;;;5023673;28;20474;-83
2022/10/11 10:28:00;;;;;;;3.93;2.50;;;;;;;;;;5021955;28;20499;-79
2022/10/11 10:30:26;;;;;;;3.67;2.73;;;;;;;;;;5023538;28;20525;-81
2022/10/11 10:32:58;;;;;;;3.50;3.17;;;;;;;;;;5042766;28;20434;-82
2022/10/11 10:35:24;;;;;;;2.43;2.23;;;;;;;;;;5023904;28;20782;-81
2022/10/11 10:38:09;;;;;;;2.63;2.30;;;;;;;;;;5033874;28;20442;-76
2022/10/11 10:40:56;;;;;;;5.70;2.20;;;;;;;;;;5026537;28;20525;-81
2022/10/11 10:43:24;;;;;;;1.70;1.57;;;;;;;;;;5031131;28;20433;-80
2022/10/11 10:46:09;;;;;;;4.47;2.53;;;;;;;;;;5021306;28;20466;-80
2022/10/11 10:48:44;;;;;;;3.73;2.27;;;;;;;;;;5045589;28;20422;-81
2022/10/11 10:51:25;;;;;;;4.73;2.60;;;;;;;;;;5032990;28;20505;-82
2022/10/11 10:54:17;;;;;;;5.07;2.23;;;;;;;;;;4680332;28;9999963;-80
2022/10/11 10:56:48;;;;;;;2.17;1.90;;;;;;;;;;5021897;28;20196;-80
2022/10/11 10:59:19;;;;;;;2.33;2.10;;;;;;;;;;5039365;28;20571;-81
2022/10/11 11:02:17;;;;;;;4.17;2.37;;;;;;;;;;5027123;28;20410;-81
2022/10/11 11:04:47;;;;;;;8.10;2.47;;;;;;;;;;4981647;28;20996;-81
2022/10/11 11:07:19;;;;;;;5.40;3.10;;;;;;;;;;5022373;28;20517;-80
2022/10/11 11:09:56;;;;;;;2.30;2.10;;;;;;;;;;5016118;28;20492;-81
2022/10/11 11:12:34;;;;;;;3.40;3.10;;;;;;;;;;5023754;28;20466;-81
2022/10/11 11:15:23;;;;;;;4.23;2.40;;;;;;;;;;5023820;28;20488;-81
2022/10/11 11:18:01;;;;;;;7.20;2.30;;;;;;;;;;5029357;28;20468;-80
2022/10/11 11:20:30;;;;;;;2.30;1.90;;;;;;;;;;5006087;28;20419;-82
2022/10/11 11:23:06;;;;;;;6.50;2.50;;;;;;;;;;5036608;28;20449;-81
2022/10/11 11:25:41;;;;;;;3.60;2.13;;;;;;;;;;5034570;28;20469;-79
2022/10/11 11:28:07;;;;;;;3.07;2.47;;;;;;;;;;5033076;28;20997;-81
2022/10/11 11:30:36;;;;;;;5.27;2.67;;;;;;;;;;5033433;28;20431;-80
2022/10/11 11:33:17;;;;;;;7.33;3.20;;;;;;;;;;5047314;28;20769;-81
2022/10/11 11:35:45;;;;;;;2.50;2.00;;;;;;;;;;5028220;28;20493;-83
2022/10/11 11:38:21;;;;;;;3.73;2.00;;;;;;;;;;5046421;28;20521;-81
2022/10/11 11:40:54;;;;;;;4.60;1.80;;;;;;;;;;5059531;28;20810;-81
2022/10/11 11:43:27;;;;;;;6.90;3.10;;;;;;;;;;5028878;28;20524;-81
2022/10/11 11:45:57;;;;;;;5.33;2.53;;;;;;;;;;5024338;28;20473;-82
2022/10/11 11:48:24;;;;;;;2.60;2.30;;;;;;;;;;5045730;28;20444;-82
2022/10/11 11:50:54;;;;;;;5.17;2.30;;;;;;;;;;5027239;28;20426;-82
2022/10/11 11:53:24;;;;;;;3.30;2.97;;;;;;;;;;5045749;28;20517;-82
2022/10/11 11:55:53;;;;;;;3.80;2.93;;;;;;;;;;5025985;28;20457;-81
2022/10/11 11:58:25;;;;;;;3.40;3.07;;;;;;;;;;5045344;28;20444;-80
2022/10/11 12:01:01;;;;;;;2.60;2.40;;;;;;;;;;5026493;28;20748;-80
2022/10/11 12:03:30;;;;;;;6.00;2.70;;;;;;;;;;5045855;28;20429;-79
2022/10/11 12:06:29;;;;;;;7.03;3.67;;;;;;;;;;5061356;28;20481;-80
2022/10/11 12:09:00;;;;;;;3.37;3.07;;;;;;;;;;5023985;28;20860;-78
2022/10/11 12:11:28;;;;;;;8.63;5.50;;;;;;;;;;5029180;28;20485;-80
2022/10/11 12:14:05;;;;;;;;;;;;;;;;;;;;;
2022/10/11 12:16:31;;;;;;;9.33;3.20;;;;;;;;;;5008289;28;20411;-81
2022/10/11 12:18:57;;;;;;;6.80;3.80;;;;;;;;;;5041972;28;21200;-80
2022/10/11 12:21:31;;;;;;;4.13;3.50;;;;;;;;;;5026076;28;20514;-81
2022/10/11 12:23:59;;;;;;;4.67;3.10;;;;;;;;;;5045529;28;20428;-81
2022/10/11 12:26:29;;;;;;;5.60;3.60;;;;;;;;;;5057651;28;20478;-81
2022/10/11 12:28:58;;;;;;;3.70;2.50;;;;;;;;;;5044741;28;20448;-80
2022/10/11 12:31:26;;;;;;;5.70;2.90;;;;;;;;;;5026329;28;20466;-81
2022/10/11 12:33:54;;;;;;;4.77;2.83;;;;;;;;;;5045368;28;20444;-81
2022/10/11 12:36:22;;;;;;;5.33;3.60;;;;;;;;;;5026275;28;20839;-82
2022/10/11 12:39:08;;;;;;;14.40;5.00;;;;;;;;;;5045064;28;20457;-81
2022/10/11 12:41:39;;;;;;;4.07;3.53;;;;;;;;;;5025205;28;20473;-80
2022/10/11 12:44:19;;;;;;;3.93;3.20;;;;;;;;;;5044720;28;20858;-80
2022/10/11 12:47:06;;;;;;;10.67;4.17;;;;;;;;;;5046961;28;20507;-81
2022/10/11 12:49:52;;;;;;;7.30;3.23;;;;;;;;;;5008085;28;21395;-81
2022/10/11 12:52:35;;;;;;;6.33;3.90;;;;;;;;;;5047857;28;20430;-81
2022/10/11 12:55:04;;;;;;;5.63;3.70;;;;;;;;;;4342444;28;10000829;-80
2022/10/11 12:57:36;;;;;;;5.03;4.20;;;;;;;;;;5025474;28;20473;-80
2022/10/11 13:00:22;;;;;;;5.77;2.93;;;;;;;;;;5027737;28;20442;-81
2022/10/11 13:02:49;;;;;;;3.70;3.40;;;;;;;;;;5031277;28;20835;-80
2022/10/11 13:05:34;;;;;;;3.40;3.10;;;;;;;;;;5059085;28;20994;-81
2022/10/11 13:08:03;;;;;;;8.87;3.23;;;;;;;;;;5031126;28;20595;-80
2022/10/11 13:10:32;;;;;;;6.47;4.30;;;;;;;;;;5028386;28;20750;-80
2022/10/11 13:13:03;;;;;;;4.73;4.00;;;;;;;;;;5035058;28;20469;-79
2022/10/11 13:15:29;;;;;;;3.13;2.63;;;;;;;;;;5019541;28;20439;-80
2022/10/11 13:18:01;;;;;;;4.77;3.10;;;;;;;;;;5028455;28;20465;-81
2022/10/11 13:20:33;;;;;;;4.90;2.73;;;;;;;;;;5020674;28;20447;-80
2022/10/11 13:23:00;;;;;;;10.40;3.47;;;;;;;;;;5023617;28;20934;-81
2022/10/11 13:25:27;;;;;;;6.33;3.77;;;;;;;;;;5028134;28;20474;-81
2022/10/11 13:27:55;;;;;;;3.50;3.20;;;;;;;;;;5025987;28;20472;-83
2022/10/11 13:30:25;;;;;;;5.40;2.70;;;;;;;;;;5032510;28;20446;-81
2022/10/11 13:32:56;;;;;;;2.50;2.27;;;;;;;;;;5030315;28;20461;-81
2022/10/11 13:35:29;;;;;;;3.63;2.30;;;;;;;;;;5028373;28;20835;-81
2022/10/11 13:37:55;;;;;;;2.47;2.20;;;;;;;;;;5035559;28;20520;-82
2022/10/11 13:40:21;;;;;;;4.40;3.10;;;;;;;;;;5035048;28;20481;-83
2022/10/11 13:42:49;;;;;;;3.47;3.00;;;;;;;;;;5043697;28;20457;-81
2022/10/11 13:45:16;;;;;;;4.77;2.77;;;;;;;;;;5025569;28;20496;-81
2022/10/11 13:47:42;;;;;;;3.03;2.03;;;;;;;;;;5045020;28;21233;-80
2022/10/11 13:50:14;;;;;;;4.40;2.30;;;;;;;;;;5065499;28;20426;-81
2022/10/11 13:52:53;;;;;;;7.17;3.80;;;;;;;;;;5047694;28;20409;-81
2022/10/11 13:55:27;;;;;;;4.40;2.73;;;;;;;;;;5032216;28;20976;-80
2022/10/11 13:57:54;;;;;;;4.27;2.57;;;;;;;;;;5060103;28;20449;-80
2022/10/11 14:00:33;;;;;;;5.90;2.27;;;;;;;;;;5031682;28;20433;-80
2022/10/11 14:03:04;;;;;;;5.93;2.40;;;;;;;;;;5028054;28;20445;-81
2022/10/11 14:05:36;;;;;;;5.43;2.33;;;;;;;;;;5032262;28;20496;-80
2022/10/11 14:08:04;;;;;;;3.63;2.77;;;;;;;;;;5028242;28;20440;-80
2022/10/11 14:10:30;;;;;;;12.13;2.90;;;;;;;;;;5032014;28;20513;-81
2022/10/11 14:12:58;;;;;;;5.90;2.80;;;;;;;;;;5034849;28;20812;-80
2022/10/11 14:15:31;;;;;;;2.80;2.37;;;;;;;;;;5031438;28;20444;-81
2022/10/11 14:17:59;;;;;;;5.27;2.53;;;;;;;;;;5027023;28;20456;-81
2022/10/11 14:20:32;;;;;;;2.40;2.20;;;;;;;;;;5066110;28;20453;-81
2022/10/11 14:22:59;;;;;;;4.10;2.50;;;;;;;;;;5043048;28;20460;-82
2022/10/11 14:25:25;;;;;;;4.23;2.77;;;;;;;;;;5062981;28;20469;-81
2022/10/11 14:27:53;;;;;;;5.07;2.03;;;;;;;;;;5042304;28;20637;-81
2022/10/11 14:30:20;;;;;;;8.57;2.47;;;;;;;;;;5024233;28;20438;-81
2022/10/11 14:32:47;;;;;;;3.77;2.07;;;;;;;;;;5040751;28;20970;-81
2022/10/11 14:35:16;;;;;;;4.00;2.20;;;;;;;;;;5028818;28;20430;-81
2022/10/11 14:37:43;;;;;;;7.53;3.20;;;;;;;;;;5043211;28;20497;-81
2022/10/11 14:40:11;;;;;;;2.20;2.10;;;;;;;;;;5027606;28;20438;-81
2022/10/11 14:42:37;;;;;;;5.87;3.27;;;;;;;;;;5043017;28;20628;-82
2022/10/11 14:45:04;;;;;;;4.87;3.07;;;;;;;;;;5055827;28;20566;-82
2022/10/11 14:47:30;;;;;;;2.83;2.63;;;;;;;;;;5077783;28;20908;-81
2022/10/11 14:49:56;;;;;;;3.97;2.70;;;;;;;;;;5043795;28;20804;-79
2022/10/11 14:52:22;;;;;;;8.10;3.60;;;;;;;;;;5090392;28;20418;-81
2022/10/11 14:54:48;;;;;;;5.67;3.10;;;;;;;;;;5047891;28;20429;-79